Time;durP1;ratioP1;P1;durP2;ratioP2;P2;SDS_P1;SDS_P2;PMS_P1;PMS_P2;Temp;Humidity;BMP_temperature;BMP_pressure;BME280_temperature;BME280_humidity;BME280_pressure;Samples;Min_cycle;Max_cycle;Signal;HPM_P1;HPM_P2
2023/08/07 00:02:00;;;;;;;2.50;0.80;;;11.00;99.90;;;;;;5033595;28;20045;-60
2023/08/07 00:04:27;;;;;;;0.50;0.40;;;11.00;99.90;;;;;;5023098;28;20063;-60
2023/08/07 00:06:54;;;;;;;;;;;11.00;99.90;;;;;;5025013;28;20042;-59
2023/08/07 00:09:21;;;;;;;1.77;0.40;;;11.00;99.90;;;;;;5033933;28;19925;-60
2023/08/07 00:11:48;;;;;;;1.05;0.55;;;10.90;99.90;;;;;;5026899;28;20033;-61
2023/08/07 00:14:15;;;;;;;1.67;0.60;;;10.90;99.90;;;;;;5032718;28;20442;-60
2023/08/07 00:16:42;;;;;;;2.92;0.60;;;10.90;99.90;;;;;;5031062;28;20045;-61
2023/08/07 00:19:09;;;;;;;;;;;10.90;99.90;;;;;;5035019;28;20041;-59
2023/08/07 00:21:35;;;;;;;5.82;0.60;;;10.90;99.90;;;;;;5034858;28;19936;-59
2023/08/07 00:24:02;;;;;;;0.70;0.52;;;10.90;99.90;;;;;;5024252;28;20505;-60
2023/08/07 00:26:31;;;;;;;2.78;0.50;;;10.90;99.90;;;;;;5029023;28;20037;-61
2023/08/07 00:28:58;;;;;;;1.25;0.30;;;10.90;99.90;;;;;;5033036;28;20052;-61
2023/08/07 00:31:25;;;;;;;1.98;0.50;;;10.90;99.90;;;;;;5034369;28;20065;-61
2023/08/07 00:33:54;;;;;;;;;;;10.90;99.90;;;;;;5031183;28;20378;-59
2023/08/07 00:36:22;;;;;;;2.45;0.55;;;10.90;99.90;;;;;;5049706;28;19927;-61
2023/08/07 00:38:49;;;;;;;2.08;0.70;;;10.80;99.90;;;;;;5046264;28;20041;-61
2023/08/07 00:41:17;;;;;;;1.85;0.40;;;10.90;99.90;;;;;;5032914;28;20474;-61
2023/08/07 00:43:44;;;;;;;2.30;0.70;;;10.80;99.90;;;;;;5047347;28;20051;-61
2023/08/07 00:46:11;;;;;;;1.63;0.40;;;10.90;99.90;;;;;;5034143;28;20042;-61
2023/08/07 00:48:38;;;;;;;1.65;0.43;;;10.90;99.90;;;;;;5049307;28;20487;-59
2023/08/07 00:51:07;;;;;;;1.40;0.70;;;10.90;99.90;;;;;;5030059;28;20033;-59
2023/08/07 00:53:39;;;;;;;4.75;0.65;;;10.90;99.90;;;;;;5021499;28;20053;-61
2023/08/07 00:56:07;;;;;;;2.20;0.52;;;11.00;99.90;;;;;;5028917;28;20048;-61
2023/08/07 00:58:34;;;;;;;1.83;0.68;;;11.00;99.90;;;;;;5043026;28;20045;-61
2023/08/07 01:01:01;;;;;;;1.05;0.50;;;11.00;99.90;;;;;;5037227;28;20042;-61
2023/08/07 01:03:28;;;;;;;1.13;0.57;;;11.00;99.90;;;;;;5042301;28;20051;-61
2023/08/07 01:05:55;;;;;;;1.40;0.57;;;10.90;99.90;;;;;;5032954;28;20068;-60
2023/08/07 01:08:22;;;;;;;0.60;0.50;;;10.90;99.90;;;;;;5030827;28;20046;-59
2023/08/07 01:11:17;;;;;;;5.53;0.98;;;10.90;99.90;;;;;;5023715;28;20128;-59
2023/08/07 01:14:03;;;;;;;3.80;0.60;;;10.90;99.90;;;;;;5028807;28;20398;-60
2023/08/07 01:16:39;;;;;;;0.73;0.50;;;10.90;99.90;;;;;;5036628;28;20620;-60
2023/08/07 01:19:15;;;;;;;3.65;1.50;;;10.80;99.90;;;;;;5032567;28;20045;-60
2023/08/07 01:21:47;;;;;;;2.83;0.55;;;10.90;99.90;;;;;;5032537;28;20041;-60
2023/08/07 01:24:14;;;;;;;1.58;0.60;;;10.90;99.90;;;;;;5027971;28;20041;-61
2023/08/07 01:26:44;;;;;;;1.67;0.55;;;10.90;99.90;;;;;;5036776;28;20053;-60
2023/08/07 01:29:23;;;;;;;1.00;0.50;;;10.90;99.90;;;;;;5031472;28;20059;-61
2023/08/07 01:31:54;;;;;;;0.30;0.30;;;10.90;99.90;;;;;;5031580;28;20130;-58
2023/08/07 01:34:23;;;;;;;0.60;0.40;;;10.80;99.90;;;;;;5030921;28;20041;-60
2023/08/07 01:36:51;;;;;;;0.68;0.50;;;10.80;99.90;;;;;;5029440;28;20414;-61
2023/08/07 01:39:18;;;;;;;1.15;0.50;;;10.80;99.90;;;;;;5045271;28;20038;-61
2023/08/07 01:41:46;;;;;;;1.10;0.55;;;10.70;99.90;;;;;;5043514;28;20052;-58
2023/08/07 01:44:14;;;;;;;0.80;0.45;;;10.70;99.90;;;;;;5032969;28;20030;-59
2023/08/07 01:46:41;;;;;;;0.65;0.35;;;10.80;99.90;;;;;;5023923;28;20061;-60
2023/08/07 01:49:07;;;;;;;0.82;0.43;;;10.70;99.90;;;;;;5029920;28;20049;-61
2023/08/07 01:51:34;;;;;;;1.17;0.80;;;10.70;99.90;;;;;;5031916;28;20398;-59
2023/08/07 01:54:01;;;;;;;2.83;0.40;;;10.70;99.90;;;;;;5045441;28;20064;-59
2023/08/07 01:56:28;;;;;;;0.95;0.60;;;10.70;99.90;;;;;;5030963;28;20053;-61
2023/08/07 01:58:54;;;;;;;3.03;0.60;;;10.70;99.90;;;;;;5039976;28;20041;-61
2023/08/07 02:01:21;;;;;;;4.78;0.70;;;10.70;99.90;;;;;;5031745;28;20041;-60
2023/08/07 02:03:48;;;;;;;3.38;0.50;;;10.70;99.90;;;;;;5043464;28;20128;-60
2023/08/07 02:06:15;;;;;;;5.72;0.57;;;10.70;99.90;;;;;;5029617;28;20203;-60
2023/08/07 02:08:42;;;;;;;3.17;0.80;;;10.60;99.90;;;;;;5039378;28;20067;-61
2023/08/07 02:11:08;;;;;;;1.40;0.70;;;10.70;99.90;;;;;;5032160;28;20065;-61
2023/08/07 02:13:36;;;;;;;2.45;0.57;;;10.70;99.90;;;;;;5042208;28;20136;-61
2023/08/07 02:16:03;;;;;;;0.50;0.40;;;10.60;99.90;;;;;;5028592;28;20485;-61
2023/08/07 02:18:30;;;;;;;2.35;0.50;;;10.60;99.90;;;;;;5032358;28;20037;-60
2023/08/07 02:20:57;;;;;;;1.00;0.50;;;10.60;99.90;;;;;;5032357;28;20121;-60
2023/08/07 02:23:24;;;;;;;0.95;0.43;;;10.60;99.90;;;;;;5021557;28;20061;-61
2023/08/07 02:25:53;;;;;;;2.78;0.50;;;10.60;99.90;;;;;;5026442;28;20038;-61
2023/08/07 02:28:20;;;;;;;;;;;10.60;99.90;;;;;;5030093;28;20052;-60
2023/08/07 02:30:48;;;;;;;0.90;0.50;;;10.60;99.90;;;;;;5030395;28;19921;-61
2023/08/07 02:33:15;;;;;;;4.03;0.40;;;10.60;99.90;;;;;;5044593;28;20104;-60
2023/08/07 02:35:43;;;;;;;1.33;0.50;;;10.60;99.90;;;;;;5029614;28;20041;-60
2023/08/07 02:38:10;;;;;;;1.83;0.50;;;10.50;99.90;;;;;;5045584;28;20041;-60
2023/08/07 02:40:37;;;;;;;0.63;0.30;;;10.50;99.90;;;;;;5028828;28;20048;-61
2023/08/07 02:43:04;;;;;;;0.63;0.30;;;10.40;99.90;;;;;;5019996;28;20050;-60
2023/08/07 02:45:31;;;;;;;0.50;0.20;;;10.40;99.90;;;;;;5031919;28;20041;-60
2023/08/07 02:47:58;;;;;;;1.38;0.20;;;10.40;99.90;;;;;;5038525;28;20048;-60
2023/08/07 02:50:26;;;;;;;0.60;0.30;;;10.40;99.90;;;;;;5031362;28;20066;-61
2023/08/07 02:52:53;;;;;;;1.40;0.20;;;10.30;99.90;;;;;;5024374;28;20418;-60
2023/08/07 02:55:19;;;;;;;4.38;0.50;;;10.30;99.90;;;;;;5029888;28;20049;-60
2023/08/07 02:57:46;;;;;;;1.58;0.20;;;10.40;99.90;;;;;;5030338;28;20160;-60
2023/08/07 03:00:13;;;;;;;1.85;0.40;;;10.30;99.90;;;;;;5043658;28;20096;-59
2023/08/07 03:02:40;;;;;;;1.98;0.50;;;10.40;99.90;;;;;;5038752;28;20069;-61
2023/08/07 03:05:08;;;;;;;1.00;0.30;;;10.40;99.90;;;;;;5043681;28;20042;-61
2023/08/07 03:07:34;;;;;;;0.68;0.30;;;10.30;99.90;;;;;;5022871;28;20041;-61
2023/08/07 03:10:01;;;;;;;0.57;0.30;;;10.30;99.90;;;;;;5030001;28;20140;-61
2023/08/07 03:12:28;;;;;;;0.40;0.20;;;10.30;99.90;;;;;;5045941;28;20621;-60
2023/08/07 03:14:55;;;;;;;4.60;0.30;;;10.30;99.90;;;;;;5030904;28;20422;-60
2023/08/07 03:17:22;;;;;;;1.67;0.30;;;10.30;99.90;;;;;;5033828;28;20148;-60
2023/08/07 03:19:49;;;;;;;0.40;0.25;;;10.30;99.90;;;;;;5025115;28;20045;-61
2023/08/07 03:22:16;;;;;;;0.20;0.15;;;10.30;99.90;;;;;;5031078;28;20055;-60
2023/08/07 03:24:47;;;;;;;1.65;0.20;;;10.30;99.90;;;;;;5040422;28;20048;-59
2023/08/07 03:27:15;;;;;;;1.25;0.40;;;10.20;99.90;;;;;;5026651;28;20046;-61
2023/08/07 03:29:42;;;;;;;1.10;0.30;;;10.30;99.90;;;;;;5014807;28;20037;-61
2023/08/07 03:32:12;;;;;;;1.38;0.30;;;10.30;99.90;;;;;;5017666;28;20634;-60
2023/08/07 03:34:39;;;;;;;0.30;0.30;;;10.30;99.90;;;;;;5014746;28;20495;-61
2023/08/07 03:37:07;;;;;;;2.38;0.40;;;10.30;99.90;;;;;;5018822;28;20046;-61
2023/08/07 03:39:34;;;;;;;0.47;0.30;;;10.40;99.90;;;;;;5028607;28;20136;-60
2023/08/07 03:42:01;;;;;;;2.10;0.40;;;10.40;99.90;;;;;;5044347;28;20045;-59
2023/08/07 03:44:28;;;;;;;0.85;0.40;;;10.30;99.90;;;;;;5046004;28;20132;-60
2023/08/07 03:46:57;;;;;;;1.08;0.40;;;10.30;99.90;;;;;;5028348;28;20042;-61
2023/08/07 03:49:24;;;;;;;2.55;0.35;;;10.30;99.90;;;;;;5028963;28;20046;-59
2023/08/07 03:51:52;;;;;;;1.25;0.60;;;10.20;99.90;;;;;;5040331;28;20084;-60
2023/08/07 03:54:19;;;;;;;0.25;0.25;;;10.20;99.90;;;;;;5026100;28;20057;-60
2023/08/07 03:56:46;;;;;;;0.77;0.45;;;10.10;99.90;;;;;;5025155;28;20508;-60
2023/08/07 03:59:13;;;;;;;1.75;0.50;;;10.10;99.90;;;;;;5043287;28;20045;-60
2023/08/07 04:01:40;;;;;;;0.82;0.50;;;10.10;99.90;;;;;;5039418;28;20477;-60
2023/08/07 04:04:07;;;;;;;4.57;0.60;;;10.10;99.90;;;;;;5027739;28;20145;-59
2023/08/07 04:06:34;;;;;;;0.60;0.38;;;10.10;99.90;;;;;;5021958;28;20054;-60
2023/08/07 04:09:03;;;;;;;0.35;0.30;;;10.10;99.90;;;;;;5042027;28;20397;-61
2023/08/07 04:11:30;;;;;;;2.58;0.30;;;10.10;99.90;;;;;;5029220;28;20042;-60
2023/08/07 04:13:57;;;;;;;0.85;0.50;;;10.10;99.90;;;;;;5038441;28;20041;-60
2023/08/07 04:16:24;;;;;;;0.13;0.13;;;10.00;99.90;;;;;;5028471;28;20046;-59
2023/08/07 04:18:52;;;;;;;1.67;0.30;;;9.90;99.90;;;;;;5030580;28;20033;-60
2023/08/07 04:21:19;;;;;;;2.88;0.28;;;10.00;99.90;;;;;;5044317;28;20495;-59
2023/08/07 04:23:45;;;;;;;1.80;0.30;;;10.00;99.90;;;;;;5037643;28;20513;-60
2023/08/07 04:26:12;;;;;;;1.85;0.40;;;10.00;99.90;;;;;;5026745;28;20562;-60
2023/08/07 04:28:39;;;;;;;2.58;0.32;;;9.90;99.90;;;;;;5029063;28;20041;-60
2023/08/07 04:31:05;;;;;;;0.55;0.20;;;9.90;99.90;;;;;;5035132;28;20052;-61
2023/08/07 04:33:32;;;;;;;0.85;0.30;;;10.00;99.90;;;;;;5029875;28;20037;-61
2023/08/07 04:35:59;;;;;;;2.47;0.50;;;10.00;99.90;;;;;;5033015;28;20038;-59
2023/08/07 04:38:26;;;;;;;0.38;0.25;;;10.00;99.90;;;;;;5033249;28;20051;-61
2023/08/07 04:40:53;;;;;;;1.13;0.70;;;10.00;99.90;;;;;;5034365;28;20041;-60
2023/08/07 04:43:20;;;;;;;0.75;0.30;;;10.00;99.90;;;;;;5033870;28;20047;-60
2023/08/07 04:45:47;;;;;;;1.13;0.40;;;10.10;99.90;;;;;;5028664;28;20422;-61
2023/08/07 04:48:15;;;;;;;0.68;0.25;;;10.10;99.90;;;;;;5032798;28;20042;-60
2023/08/07 04:50:42;;;;;;;3.85;0.40;;;10.10;99.90;;;;;;5034095;28;20046;-60
2023/08/07 04:53:09;;;;;;;1.58;0.50;;;10.00;99.90;;;;;;5029748;28;20495;-61
2023/08/07 04:55:36;;;;;;;0.35;0.32;;;10.10;99.90;;;;;;5033688;28;20483;-60
2023/08/07 04:58:02;;;;;;;1.15;0.30;;;10.10;99.90;;;;;;5033443;28;20046;-59
2023/08/07 05:00:29;;;;;;;0.88;0.45;;;10.00;99.90;;;;;;5032701;28;20397;-60
2023/08/07 05:02:56;;;;;;;1.20;0.60;;;10.00;99.90;;;;;;5040303;28;20068;-58
2023/08/07 05:05:23;;;;;;;2.58;0.57;;;10.00;99.90;;;;;;5033098;28;20120;-60
2023/08/07 05:07:50;;;;;;;1.95;0.75;;;10.00;99.90;;;;;;5028782;28;20702;-61
2023/08/07 05:10:17;;;;;;;1.55;0.40;;;9.90;99.90;;;;;;5025872;28;20087;-60
2023/08/07 05:12:44;;;;;;;0.98;0.43;;;10.00;99.90;;;;;;5042719;28;20076;-60
2023/08/07 05:15:11;;;;;;;0.95;0.50;;;10.00;99.90;;;;;;5030211;28;20041;-60
2023/08/07 05:17:38;;;;;;;4.50;0.38;;;10.00;99.90;;;;;;5031867;28;20045;-61
2023/08/07 05:20:05;;;;;;;1.23;0.30;;;9.90;99.90;;;;;;5033551;28;20041;-61
2023/08/07 05:22:32;;;;;;;0.85;0.55;;;10.00;99.90;;;;;;5032936;28;20056;-61
2023/08/07 05:24:59;;;;;;;1.50;0.50;;;10.00;99.90;;;;;;5026493;28;20042;-60
2023/08/07 05:27:26;;;;;;;2.88;0.70;;;10.10;99.90;;;;;;5031628;28;20047;-61
2023/08/07 05:29:53;;;;;;;2.15;0.50;;;10.20;99.90;;;;;;5026730;28;20046;-61
2023/08/07 05:32:19;;;;;;;3.50;0.40;;;10.30;99.90;;;;;;5028821;28;20046;-61
2023/08/07 05:34:46;;;;;;;1.88;0.60;;;10.30;99.90;;;;;;5024691;28;20487;-61
2023/08/07 05:37:13;;;;;;;2.75;0.40;;;10.40;99.90;;;;;;5030716;28;20486;-61
2023/08/07 05:39:40;;;;;;;1.15;0.60;;;10.40;99.90;;;;;;5030339;28;20418;-60
2023/08/07 05:42:07;;;;;;;2.78;0.65;;;10.50;99.90;;;;;;5028507;28;20041;-60
2023/08/07 05:44:34;;;;;;;0.68;0.45;;;10.60;99.90;;;;;;5032188;28;20065;-61
2023/08/07 05:47:01;;;;;;;1.85;0.65;;;10.60;99.90;;;;;;5032924;28;20108;-61
2023/08/07 05:49:28;;;;;;;2.47;0.70;;;10.60;99.90;;;;;;5028950;28;20050;-61
2023/08/07 05:51:55;;;;;;;2.47;1.10;;;10.70;99.90;;;;;;5032737;28;20046;-60
2023/08/07 05:54:22;;;;;;;;;;;10.80;99.90;;;;;;5033132;28;20057;-61
2023/08/07 05:56:49;;;;;;;2.92;0.60;;;10.80;99.90;;;;;;5032988;28;19927;-61
2023/08/07 05:59:16;;;;;;;2.05;0.88;;;10.80;99.90;;;;;;5027795;28;20037;-61
2023/08/07 06:01:42;;;;;;;0.75;0.50;;;10.80;99.90;;;;;;5032580;28;20056;-60
2023/08/07 06:04:09;;;;;;;3.58;1.27;;;10.80;99.90;;;;;;5032088;28;20050;-60
2023/08/07 06:06:39;;;;;;;2.10;1.08;;;10.80;99.90;;;;;;5021341;28;20057;-60
2023/08/07 06:09:06;;;;;;;1.40;0.77;;;10.80;99.90;;;;;;5018664;28;20050;-61
2023/08/07 06:11:33;;;;;;;1.88;0.90;;;10.90;99.90;;;;;;5030334;28;20053;-59
2023/08/07 06:14:00;;;;;;;0.63;0.57;;;11.00;99.90;;;;;;5032061;28;20124;-60
2023/08/07 06:16:27;;;;;;;1.30;0.80;;;11.10;99.90;;;;;;5031398;28;20120;-60
2023/08/07 06:18:54;;;;;;;0.70;0.60;;;11.20;99.90;;;;;;5018299;28;20042;-61
2023/08/07 06:21:21;;;;;;;2.28;0.90;;;11.20;99.90;;;;;;5032401;28;20052;-61
2023/08/07 06:23:48;;;;;;;2.35;0.63;;;11.30;99.90;;;;;;5031630;28;20375;-60
2023/08/07 06:26:15;;;;;;;1.40;0.75;;;11.30;99.90;;;;;;5031357;28;20045;-61
2023/08/07 06:28:42;;;;;;;1.38;1.00;;;11.40;99.90;;;;;;5024742;28;20694;-60
2023/08/07 06:31:11;;;;;;;1.13;0.73;;;11.50;99.90;;;;;;5032277;28;20133;-60
2023/08/07 06:33:38;;;;;;;1.13;0.63;;;11.40;99.90;;;;;;5024738;28;20483;-61
2023/08/07 06:36:06;;;;;;;3.22;0.80;;;11.40;99.90;;;;;;5032212;28;20056;-61
2023/08/07 06:38:32;;;;;;;1.27;0.80;;;11.60;99.90;;;;;;5029883;28;20526;-61
2023/08/07 06:40:59;;;;;;;3.90;1.13;;;11.70;99.90;;;;;;5032172;28;20038;-60
2023/08/07 06:43:26;;;;;;;1.95;0.80;;;11.70;99.90;;;;;;5029541;28;20065;-60
2023/08/07 06:45:56;;;;;;;1.45;0.90;;;11.60;99.90;;;;;;5032127;28;20571;-61
2023/08/07 06:48:23;;;;;;;3.63;1.10;;;11.70;99.90;;;;;;5031776;28;20037;-62
2023/08/07 06:50:51;;;;;;;2.05;1.10;;;11.70;99.90;;;;;;5030915;28;20060;-61
2023/08/07 06:53:18;;;;;;;1.90;1.00;;;11.80;99.90;;;;;;5027696;28;20046;-61
2023/08/07 06:55:45;;;;;;;;;;;11.90;99.90;;;;;;5032237;28;20429;-61
2023/08/07 06:58:12;;;;;;;0.82;0.73;;;12.00;99.90;;;;;;5030018;28;19945;-61
2023/08/07 07:00:39;;;;;;;2.10;1.00;;;11.90;99.90;;;;;;5023379;28;20045;-61
2023/08/07 07:03:07;;;;;;;1.23;0.70;;;11.90;99.90;;;;;;5031306;28;20136;-60
2023/08/07 07:05:34;;;;;;;2.85;0.80;;;11.90;99.90;;;;;;5031682;28;20494;-61
2023/08/07 07:08:01;;;;;;;2.72;1.63;;;11.90;99.90;;;;;;5029476;28;20422;-61
2023/08/07 07:10:27;;;;;;;3.70;1.00;;;11.90;99.90;;;;;;5018184;28;20050;-61
2023/08/07 07:12:55;;;;;;;1.88;0.90;;;11.90;99.90;;;;;;5030894;28;20045;-61
2023/08/07 07:15:21;;;;;;;3.67;0.82;;;11.90;99.90;;;;;;5031800;28;20053;-61
2023/08/07 07:17:48;;;;;;;1.52;0.70;;;11.90;99.90;;;;;;5028625;28;20426;-61
2023/08/07 07:20:15;;;;;;;1.40;1.08;;;11.80;99.90;;;;;;5021396;28;20051;-60
2023/08/07 07:22:42;;;;;;;5.03;1.30;;;11.80;99.90;;;;;;5023609;28;20045;-59
2023/08/07 07:25:09;;;;;;;4.50;1.67;;;11.90;99.90;;;;;;5019516;28;20057;-58
2023/08/07 07:27:36;;;;;;;2.33;1.13;;;11.90;99.90;;;;;;5024576;28;20663;-61
2023/08/07 07:30:03;;;;;;;2.58;1.38;;;12.00;99.90;;;;;;5028200;28;20121;-60
2023/08/07 07:32:30;;;;;;;3.95;1.48;;;11.90;99.90;;;;;;5021143;28;20034;-61
2023/08/07 07:34:57;;;;;;;4.15;2.03;;;12.00;99.90;;;;;;5018908;28;20042;-61
2023/08/07 07:37:24;;;;;;;;;;;12.00;99.90;;;;;;5024102;28;20042;-61
2023/08/07 07:39:51;;;;;;;3.03;2.05;;;11.90;99.90;;;;;;5022331;28;20416;-61
2023/08/07 07:42:18;;;;;;;3.80;2.67;;;12.10;99.90;;;;;;5022835;28;20116;-61
2023/08/07 07:44:45;;;;;;;4.45;2.10;;;12.10;99.90;;;;;;5019956;28;20053;-61
2023/08/07 07:47:12;;;;;;;1.75;1.30;;;12.10;99.90;;;;;;5022363;28;20053;-61
2023/08/07 07:49:44;;;;;;;3.08;1.63;;;12.20;99.90;;;;;;5021050;28;20105;-61
2023/08/07 07:52:11;;;;;;;2.50;1.50;;;12.30;99.90;;;;;;5020125;28;20049;-61
2023/08/07 07:54:38;;;;;;;2.50;1.42;;;12.20;99.90;;;;;;5023527;28;20490;-61
2023/08/07 07:57:05;;;;;;;3.55;1.80;;;12.40;99.90;;;;;;5020173;28;20061;-61
2023/08/07 07:59:31;;;;;;;4.50;1.77;;;12.40;99.90;;;;;;5023520;28;20037;-61
2023/08/07 08:01:58;;;;;;;3.00;1.27;;;12.50;99.90;;;;;;5020654;28;20045;-60
2023/08/07 08:04:25;;;;;;;4.03;1.63;;;12.50;99.90;;;;;;5023300;28;20538;-59
2023/08/07 08:06:52;;;;;;;6.72;3.35;;;12.50;99.90;;;;;;5022268;28;20037;-61
2023/08/07 08:09:19;;;;;;;7.95;3.10;;;12.60;99.90;;;;;;5020209;28;20399;-61
2023/08/07 08:11:46;;;;;;;4.63;2.88;;;12.70;99.90;;;;;;5025622;28;20045;-61
2023/08/07 08:14:12;;;;;;;6.80;2.22;;;12.70;99.90;;;;;;5024575;28;20057;-61
2023/08/07 08:16:39;;;;;;;2.10;1.60;;;12.50;99.90;;;;;;5026304;28;20037;-61
2023/08/07 08:19:08;;;;;;;2.50;1.17;;;12.50;99.90;;;;;;5022677;28;20041;-61
2023/08/07 08:21:34;;;;;;;5.53;1.92;;;12.50;99.90;;;;;;5025082;28;20069;-60
2023/08/07 08:24:01;;;;;;;2.38;1.52;;;12.40;99.90;;;;;;5024107;28;20042;-60
2023/08/07 08:26:28;;;;;;;2.10;0.93;;;12.40;99.90;;;;;;5026346;28;20091;-60
2023/08/07 08:28:55;;;;;;;2.30;1.45;;;12.40;99.90;;;;;;5023867;28;20052;-60
2023/08/07 08:31:23;;;;;;;4.05;2.55;;;12.40;99.90;;;;;;5025728;28;20464;-61
2023/08/07 08:33:50;;;;;;;4.75;2.08;;;12.40;99.90;;;;;;5021669;28;20061;-60
2023/08/07 08:36:17;;;;;;;3.60;1.58;;;12.50;99.90;;;;;;5024853;28;20037;-59
2023/08/07 08:38:46;;;;;;;3.55;1.67;;;12.60;99.90;;;;;;5026357;28;20048;-60
2023/08/07 08:41:13;;;;;;;5.13;1.90;;;12.80;99.90;;;;;;5024973;28;20046;-60
2023/08/07 08:43:42;;;;;;;4.15;1.50;;;13.10;99.90;;;;;;5024381;28;20518;-61
2023/08/07 08:46:10;;;;;;;2.63;1.60;;;13.10;99.90;;;;;;5023428;28;20046;-60
2023/08/07 08:48:40;;;;;;;3.58;1.40;;;13.10;99.90;;;;;;5024342;28;20100;-61
2023/08/07 08:51:08;;;;;;;3.67;1.90;;;12.90;99.90;;;;;;5023395;28;20103;-61
2023/08/07 08:53:35;;;;;;;2.83;1.60;;;12.70;99.90;;;;;;5022643;28;20462;-61
2023/08/07 08:56:02;;;;;;;3.35;1.13;;;12.70;99.90;;;;;;5022707;28;20433;-62
2023/08/07 08:58:30;;;;;;;3.38;1.25;;;12.50;99.90;;;;;;5023179;28;20042;-61
2023/08/07 09:00:57;;;;;;;7.80;1.98;;;12.60;99.90;;;;;;5023217;28;20065;-60
2023/08/07 09:03:24;;;;;;;4.05;1.60;;;12.60;99.90;;;;;;5024208;28;20053;-61
2023/08/07 09:05:54;;;;;;;;;;;12.60;99.90;;;;;;5023723;28;20057;-61
2023/08/07 09:08:24;;;;;;;4.75;1.83;;;12.60;99.90;;;;;;5022333;28;19925;-61
2023/08/07 09:10:52;;;;;;;2.88;1.55;;;12.60;99.90;;;;;;5020484;28;20041;-61
2023/08/07 09:13:22;;;;;;;4.05;1.52;;;12.70;99.90;;;;;;5021529;28;20044;-62
2023/08/07 09:15:50;;;;;;;3.80;1.65;;;12.90;99.90;;;;;;5023991;28;20037;-61
2023/08/07 09:18:21;;;;;;;2.17;1.38;;;13.00;99.90;;;;;;5021746;28;20045;-62
2023/08/07 09:20:48;;;;;;;2.28;1.35;;;13.20;99.90;;;;;;5021455;28;20044;-61
2023/08/07 09:23:16;;;;;;;5.50;1.40;;;13.30;99.90;;;;;;5021803;28;20068;-62
2023/08/07 09:25:44;;;;;;;6.65;2.05;;;13.40;99.90;;;;;;5021902;28;20045;-61
2023/08/07 09:28:11;;;;;;;4.10;1.48;;;13.40;99.90;;;;;;5020947;28;20546;-62
2023/08/07 09:30:39;;;;;;;2.38;1.38;;;13.30;99.90;;;;;;5019194;28;20122;-61
2023/08/07 09:33:06;;;;;;;3.08;1.30;;;13.20;99.90;;;;;;5021898;28;20077;-61
2023/08/07 09:35:34;;;;;;;4.47;1.98;;;13.30;99.90;;;;;;5019963;28;20440;-61
2023/08/07 09:38:01;;;;;;;8.13;1.98;;;13.40;99.90;;;;;;5018990;28;20034;-61
2023/08/07 09:40:29;;;;;;;2.75;1.58;;;13.40;99.90;;;;;;5020190;28;20372;-61
2023/08/07 09:42:56;;;;;;;2.53;1.48;;;13.50;99.90;;;;;;5016709;28;20133;-60
2023/08/07 09:45:24;;;;;;;2.30;1.52;;;13.40;99.90;;;;;;5019935;28;20116;-62
2023/08/07 09:48:06;;;;;;;2.40;1.42;;;13.50;99.90;;;;;;5025466;28;20041;-62
2023/08/07 09:50:33;;;;;;;5.80;2.10;;;13.70;99.90;;;;;;5025481;28;20042;-62
2023/08/07 09:53:00;;;;;;;3.60;1.55;;;13.80;99.90;;;;;;5023588;28;20053;-61
2023/08/07 09:55:27;;;;;;;8.10;1.40;;;13.80;99.90;;;;;;5023128;28;20550;-61
2023/08/07 09:57:54;;;;;;;2.42;1.35;;;13.90;99.90;;;;;;5025101;28;20057;-61
2023/08/07 10:00:21;;;;;;;2.70;1.40;;;14.00;99.90;;;;;;5024095;28;20064;-58
2023/08/07 10:02:49;;;;;;;;;;;14.30;99.90;;;;;;5022514;28;20065;-62
2023/08/07 10:05:17;;;;;;;3.67;1.93;;;14.50;99.90;;;;;;5021561;28;20002;-62
2023/08/07 10:07:44;;;;;;;2.58;1.50;;;14.70;99.90;;;;;;5025730;28;20056;-62
2023/08/07 10:10:11;;;;;;;4.47;1.70;;;14.80;99.90;;;;;;5022976;28;20431;-60
2023/08/07 10:12:38;;;;;;;3.30;1.40;;;14.60;99.90;;;;;;5025007;28;20038;-62
2023/08/07 10:15:07;;;;;;;13.65;3.38;;;14.40;99.90;;;;;;5022623;28;20033;-62
2023/08/07 10:17:34;;;;;;;10.02;2.20;;;14.40;99.90;;;;;;5024495;28;20133;-62
2023/08/07 10:20:01;;;;;;;2.45;1.30;;;14.50;99.90;;;;;;5022155;28;20391;-62
2023/08/07 10:22:31;;;;;;;3.45;1.70;;;14.60;99.90;;;;;;5023270;28;20513;-62
2023/08/07 10:25:02;;;;;;;4.63;1.45;;;14.70;99.90;;;;;;5023072;28;20037;-59
2023/08/07 10:27:33;;;;;;;3.97;1.80;;;15.10;99.90;;;;;;5022177;28;20105;-62
2023/08/07 10:30:04;;;;;;;3.15;2.00;;;15.30;99.90;;;;;;5022555;28;20061;-62
2023/08/07 10:32:32;;;;;;;6.05;3.33;;;15.40;99.90;;;;;;5023250;28;20509;-62
2023/08/07 10:35:04;;;;;;;5.43;3.03;;;15.40;99.90;;;;;;5020027;28;20041;-62
2023/08/07 10:37:43;;;;;;;8.73;3.60;;;15.50;99.90;;;;;;5023980;28;20038;-62
2023/08/07 10:40:12;;;;;;;4.03;1.33;;;15.50;99.90;;;;;;5025914;28;20046;-62
2023/08/07 10:42:58;;;;;;;3.30;2.58;;;15.30;99.90;;;;;;5027491;28;20034;-62
2023/08/07 10:45:27;;;;;;;6.65;2.55;;;15.30;99.90;;;;;;5019907;28;20038;-62
2023/08/07 10:48:12;;;;;;;3.60;1.35;;;15.10;99.90;;;;;;5021541;28;20037;-60
2023/08/07 10:50:54;;;;;;;3.60;1.38;;;14.90;99.90;;;;;;5024837;28;20056;-62
2023/08/07 10:53:35;;;;;;;3.90;1.40;;;14.70;99.90;;;;;;5022569;28;20117;-62
2023/08/07 10:56:08;;;;;;;3.97;1.30;;;14.50;99.90;;;;;;5021857;28;20415;-61
2023/08/07 10:58:37;;;;;;;6.97;1.42;;;14.30;99.90;;;;;;5023265;28;20041;-62
2023/08/07 11:01:34;;;;;;;3.70;1.98;;;14.30;99.90;;;;;;5022677;28;20038;-62
2023/08/07 11:04:11;;;;;;;3.88;1.42;;;14.30;99.90;;;;;;5022811;28;20048;-62
2023/08/07 11:06:39;;;;;;;1.77;1.23;;;14.30;99.90;;;;;;5019111;28;20038;-61
2023/08/07 11:09:08;;;;;;;2.05;1.50;;;14.40;99.90;;;;;;5025116;28;20045;-62
2023/08/07 11:11:46;;;;;;;2.42;1.35;;;14.60;99.90;;;;;;5031619;28;20371;-62
2023/08/07 11:14:18;;;;;;;2.47;1.25;;;14.60;99.90;;;;;;5023513;28;20461;-60
2023/08/07 11:16:47;;;;;;;3.00;1.58;;;14.60;99.90;;;;;;5028345;28;20052;-62
2023/08/07 11:19:15;;;;;;;2.03;1.35;;;14.40;99.90;;;;;;5023324;28;20041;-61
2023/08/07 11:21:42;;;;;;;2.17;1.35;;;14.20;99.90;;;;;;5031425;28;20045;-59
2023/08/07 11:24:13;;;;;;;4.93;1.60;;;14.00;99.90;;;;;;5031074;28;20511;-62
2023/08/07 11:26:41;;;;;;;3.15;1.70;;;13.80;99.90;;;;;;5028159;28;20538;-61
2023/08/07 11:29:09;;;;;;;1.85;1.42;;;13.70;99.90;;;;;;5030982;28;20490;-61
2023/08/07 11:31:36;;;;;;;3.45;1.30;;;13.60;99.90;;;;;;5031159;28;20418;-62
2023/08/07 11:34:03;;;;;;;3.08;1.52;;;13.70;99.90;;;;;;5029146;28;20053;-62
2023/08/07 11:36:31;;;;;;;2.28;1.25;;;14.00;99.90;;;;;;5021181;28;20053;-62
2023/08/07 11:38:58;;;;;;;2.70;1.30;;;14.30;99.90;;;;;;5028984;28;20037;-61
2023/08/07 11:41:24;;;;;;;2.28;1.38;;;14.90;99.90;;;;;;5026355;28;20049;-62
2023/08/07 11:43:51;;;;;;;3.35;1.23;;;15.60;99.90;;;;;;5014081;28;20038;-62
2023/08/07 11:46:18;;;;;;;3.42;1.40;;;16.10;99.90;;;;;;5041199;28;20045;-62
2023/08/07 11:48:45;;;;;;;3.40;1.50;;;16.20;99.90;;;;;;5030837;28;20033;-62
2023/08/07 11:51:12;;;;;;;1.95;1.17;;;16.30;99.90;;;;;;5034594;28;20055;-62
2023/08/07 11:53:41;;;;;;;3.95;1.50;;;16.70;99.90;;;;;;5026895;28;20065;-62
2023/08/07 11:56:09;;;;;;;2.92;1.13;;;16.70;99.90;;;;;;5032275;28;20045;-62
2023/08/07 11:58:47;;;;;;;7.18;1.30;;;16.50;99.90;;;;;;5050530;28;20037;-62
2023/08/07 12:01:16;;;;;;;3.72;1.48;;;16.10;99.90;;;;;;5029727;28;20044;-62
2023/08/07 12:03:54;;;;;;;4.18;1.27;;;15.70;99.90;;;;;;5023097;28;20097;-61
2023/08/07 12:06:23;;;;;;;2.67;1.40;;;15.10;99.90;;;;;;5025429;28;20034;-62
2023/08/07 12:08:53;;;;;;;1.77;1.48;;;14.80;99.90;;;;;;5024342;28;20444;-62
2023/08/07 12:11:23;;;;;;;2.08;1.30;;;14.60;99.90;;;;;;5024577;28;20053;-62
2023/08/07 12:13:50;;;;;;;2.72;1.25;;;14.30;99.90;;;;;;5020594;28;20042;-62
2023/08/07 12:16:18;;;;;;;3.92;1.40;;;14.10;99.90;;;;;;5034058;28;20037;-61
2023/08/07 12:18:50;;;;;;;3.88;1.67;;;14.00;99.90;;;;;;5034894;28;20103;-61
2023/08/07 12:21:23;;;;;;;3.20;1.60;;;13.90;99.90;;;;;;5031159;28;20037;-61
2023/08/07 12:23:54;;;;;;;4.70;1.42;;;14.20;99.90;;;;;;5034555;28;20045;-62
2023/08/07 12:26:21;;;;;;;2.38;1.50;;;14.40;99.90;;;;;;5027040;28;20517;-61
2023/08/07 12:28:49;;;;;;;2.05;1.38;;;14.70;99.90;;;;;;5033135;28;20049;-61
2023/08/07 12:31:17;;;;;;;;;;;15.10;99.90;;;;;;5033867;28;20045;-61
2023/08/07 12:33:44;;;;;;;;;;;15.50;99.90;;;;;;5026241;28;19921;-62
2023/08/07 12:36:13;;;;;;;5.05;1.88;;;15.90;99.90;;;;;;5026675;28;19928;-61
2023/08/07 12:38:43;;;;;;;2.53;1.40;;;16.20;99.90;;;;;;5024759;28;20037;-62
2023/08/07 12:41:09;;;;;;;1.88;1.23;;;16.10;99.90;;;;;;5022300;28;20503;-62
2023/08/07 12:43:56;;;;;;;3.38;1.70;;;16.00;99.90;;;;;;5020539;28;20042;-62
2023/08/07 12:46:23;;;;;;;5.05;1.90;;;15.90;99.90;;;;;;5029700;28;20045;-61
2023/08/07 12:48:52;;;;;;;2.60;1.58;;;15.90;99.90;;;;;;5034075;28;20040;-62
2023/08/07 12:51:19;;;;;;;2.92;1.30;;;15.70;99.90;;;;;;5025883;28;20112;-60
2023/08/07 12:53:47;;;;;;;2.35;1.50;;;15.40;99.90;;;;;;5026529;28;20057;-61
2023/08/07 12:56:14;;;;;;;3.28;1.70;;;15.40;99.90;;;;;;5022563;28;20095;-62